Time;durP1;ratioP1;P1;durP2;ratioP2;P2;SDS_P1;SDS_P2;PMS_P1;PMS_P2;Temp;Humidity;BMP_temperature;BMP_pressure;BME280_temperature;BME280_humidity;BME280_pressure;Samples;Min_cycle;Max_cycle;Signal;HPM_P1;HPM_P2
2023/07/01 00:01:19;;;;;;;17.60;11.60;;;;;;;20.55;100.00;97766.16;4153818;28;20637;-83
2023/07/01 00:03:22;;;;;;;20.30;13.57;;;;;;;20.51;100.00;97758.72;4145806;28;20642;-83
2023/07/01 00:05:25;;;;;;;18.40;12.37;;;;;;;20.47;100.00;97763.53;4153562;28;20703;-84
2023/07/01 00:07:28;;;;;;;18.13;11.80;;;;;;;20.43;100.00;97754.28;4153368;28;20722;-84
2023/07/01 00:09:32;;;;;;;16.80;10.73;;;;;;;20.41;100.00;97755.44;4153523;28;20657;-84
2023/07/01 00:11:35;;;;;;;15.97;11.60;;;;;;;20.36;100.00;97757.81;4147396;28;20681;-84
2023/07/01 00:13:38;;;;;;;17.20;11.57;;;;;;;20.33;100.00;97751.00;4156936;28;20630;-83
2023/07/01 00:15:41;;;;;;;17.77;11.90;;;;;;;20.30;99.48;97760.28;4155633;28;20664;-83
2023/07/01 00:17:45;;;;;;;15.20;10.10;;;;;;;20.27;100.00;97755.38;4154729;28;20718;-83
2023/07/01 00:19:48;;;;;;;15.87;11.20;;;;;;;20.24;99.55;97753.88;4158061;28;20631;-84
2023/07/01 00:21:52;;;;;;;17.70;10.87;;;;;;;20.22;100.00;97753.22;4160882;28;20715;-83
2023/07/01 00:23:55;;;;;;;18.00;11.07;;;;;;;20.21;100.00;97761.34;4155835;28;20669;-83
2023/07/01 00:25:59;;;;;;;16.30;10.40;;;;;;;20.19;99.79;97760.69;4155064;28;20749;-83
2023/07/01 00:28:03;;;;;;;17.40;12.10;;;;;;;20.16;99.70;97764.53;4151939;28;21217;-84
2023/07/01 00:30:10;;;;;;;16.43;11.30;;;;;;;20.12;100.00;97763.19;4153750;28;20737;-84
2023/07/01 00:32:13;;;;;;;16.80;10.97;;;;;;;20.03;100.00;97760.75;4143032;28;21237;-84
2023/07/01 00:34:18;;;;;;;16.50;11.03;;;;;;;20.02;99.85;97756.44;4160347;28;20646;-84
2023/07/01 00:36:21;;;;;;;16.70;11.20;;;;;;;19.91;100.00;97751.53;4142919;28;20664;-83
2023/07/01 00:38:24;;;;;;;16.57;11.10;;;;;;;19.84;100.00;97754.00;4152447;28;20637;-83
2023/07/01 00:40:27;;;;;;;15.63;11.13;;;;;;;19.78;99.49;97747.72;4152775;28;20642;-84
2023/07/01 00:42:30;;;;;;;15.93;10.87;;;;;;;19.74;100.00;97746.41;4133239;28;20631;-84
2023/07/01 00:44:33;;;;;;;16.67;11.90;;;;;;;19.70;100.00;97751.22;4154565;28;21167;-84
2023/07/01 00:46:36;;;;;;;17.70;11.87;;;;;;;19.66;99.83;97747.25;4153157;28;20661;-83
2023/07/01 00:48:41;;;;;;;16.63;11.23;;;;;;;19.62;100.00;97742.44;4137957;28;20643;-83
2023/07/01 00:50:45;;;;;;;17.90;11.47;;;;;;;19.56;99.24;97743.97;4170338;28;20735;-83
2023/07/01 00:52:50;;;;;;;19.50;12.50;;;;;;;19.55;100.00;97749.44;4153911;28;21302;-84
2023/07/01 00:54:53;;;;;;;16.53;10.37;;;;;;;19.49;99.60;97745.63;4153955;28;22189;-83
2023/07/01 00:56:56;;;;;;;16.27;10.53;;;;;;;19.47;98.67;97744.16;4149787;28;21333;-83
2023/07/01 00:58:59;;;;;;;15.73;10.07;;;;;;;19.44;99.51;97740.03;4151427;28;20702;-83
2023/07/01 01:01:08;;;;;;;14.57;9.73;;;;;;;19.42;98.87;97738.53;4151207;28;20626;-83
2023/07/01 01:03:21;;;;;;;17.50;10.10;;;;;;;19.38;99.93;97739.88;4150402;28;21225;-84
2023/07/01 01:05:30;;;;;;;15.70;11.00;;;;;;;19.36;99.38;97735.72;4151246;28;20769;-83
2023/07/01 01:07:42;;;;;;;12.93;9.70;;;;;;;19.34;99.50;97735.09;4150303;28;20709;-83
2023/07/01 01:09:49;;;;;;;16.47;10.43;;;;;;;19.29;98.84;97732.09;4132900;28;20633;-83
2023/07/01 01:11:54;;;;;;;16.77;10.90;;;;;;;19.23;98.74;97741.53;4148059;28;21578;-83
2023/07/01 01:13:59;;;;;;;18.70;11.87;;;;;;;19.20;99.17;97743.66;4156410;28;20642;-83
2023/07/01 01:16:03;;;;;;;17.93;11.70;;;;;;;19.12;99.55;97733.91;4152157;28;20638;-83
2023/07/01 01:18:07;;;;;;;16.37;11.07;;;;;;;19.10;100.00;97732.44;4153112;28;20638;-81
2023/07/01 01:20:16;;;;;;;15.00;10.30;;;;;;;19.05;99.76;97732.94;4155882;28;20705;-81
2023/07/01 01:22:23;;;;;;;14.77;10.00;;;;;;;19.01;99.28;97739.53;4154448;28;20624;-81
2023/07/01 01:24:28;;;;;;;15.07;9.13;;;;;;;19.00;100.00;97737.03;4152171;28;20668;-81
2023/07/01 01:26:35;;;;;;;14.20;9.50;;;;;;;18.95;99.08;97734.88;4148017;28;21286;-81
2023/07/01 01:28:40;;;;;;;15.30;9.93;;;;;;;18.93;99.81;97731.59;4153765;28;20638;-81
2023/07/01 01:30:44;;;;;;;16.30;9.70;;;;;;;18.94;99.81;97740.34;4167202;28;20647;-81
2023/07/01 01:32:48;;;;;;;12.63;8.70;;;;;;;18.94;99.04;97735.03;4147314;28;20712;-81
2023/07/01 01:34:53;;;;;;;13.00;8.57;;;;;;;18.92;99.92;97737.84;4150707;28;20661;-81
2023/07/01 01:37:01;;;;;;;13.67;9.53;;;;;;;18.86;99.35;97732.41;4135559;28;21013;-82
2023/07/01 01:39:07;;;;;;;10.77;8.10;;;;;;;18.80;99.96;97733.06;4134501;28;20670;-81
2023/07/01 01:41:14;;;;;;;13.43;8.70;;;;;;;18.78;99.68;97727.13;4134444;28;20628;-81
2023/07/01 01:43:22;;;;;;;12.50;8.67;;;;;;;18.76;99.60;97728.25;4148555;28;20625;-81
2023/07/01 01:45:27;;;;;;;13.60;9.10;;;;;;;18.73;99.21;97731.22;4146245;28;20628;-81
2023/07/01 01:47:31;;;;;;;16.70;9.60;;;;;;;18.70;99.07;97731.56;4165461;28;21502;-82
2023/07/01 01:49:35;;;;;;;12.03;8.00;;;;;;;18.61;99.20;97733.38;4145219;28;20653;-81
2023/07/01 01:51:40;;;;;;;12.57;9.00;;;;;;;18.56;99.11;97726.94;4152968;28;20625;-82
2023/07/01 01:53:44;;;;;;;13.30;8.70;;;;;;;18.55;99.31;97728.75;4151840;28;21051;-81
2023/07/01 01:55:48;;;;;;;10.40;7.40;;;;;;;18.55;98.93;97731.38;4149089;28;21039;-81
2023/07/01 01:57:51;;;;;;;11.43;8.10;;;;;;;18.52;98.99;97728.22;4171582;28;20639;-81
2023/07/01 01:59:55;;;;;;;13.53;8.30;;;;;;;18.47;99.29;97726.06;4153090;28;20735;-81
2023/07/01 02:01:59;;;;;;;15.10;8.13;;;;;;;18.42;98.61;97722.28;4136883;28;20644;-81
2023/07/01 02:04:04;;;;;;;12.67;8.07;;;;;;;18.37;97.99;97721.91;4133819;28;20762;-81
2023/07/01 02:06:08;;;;;;;12.20;7.77;;;;;;;18.35;98.92;97720.44;4138084;28;20644;-81
2023/07/01 02:08:11;;;;;;;11.17;7.93;;;;;;;18.34;99.33;97727.53;4142185;28;20651;-81
2023/07/01 02:10:14;;;;;;;12.10;8.97;;;;;;;18.32;98.74;97728.69;4149860;28;20795;-81
2023/07/01 02:12:17;;;;;;;12.50;9.40;;;;;;;18.29;98.17;97726.38;4155057;28;20723;-81
2023/07/01 02:14:20;;;;;;;12.90;8.10;;;;;;;18.27;98.51;97737.09;4153758;28;21208;-81
2023/07/01 02:16:24;;;;;;;12.43;8.03;;;;;;;18.24;97.97;97726.84;4153632;28;20748;-81
2023/07/01 02:18:28;;;;;;;13.30;8.40;;;;;;;18.21;97.68;97726.34;4141338;28;20641;-81
2023/07/01 02:20:32;;;;;;;11.83;7.93;;;;;;;18.16;97.65;97725.97;4153227;28;20645;-80
2023/07/01 02:22:35;;;;;;;12.27;8.10;;;;;;;18.12;97.64;97730.72;4149688;28;20637;-81
2023/07/01 02:24:38;;;;;;;11.13;6.80;;;;;;;18.10;97.10;97727.44;4150341;28;20646;-80
2023/07/01 02:26:45;;;;;;;14.57;7.20;;;;;;;18.06;97.33;97720.00;4151184;28;20644;-81
2023/07/01 02:28:48;;;;;;;9.30;6.50;;;;;;;18.03;97.64;97721.13;4136970;28;20694;-81
2023/07/01 02:30:51;;;;;;;10.20;6.47;;;;;;;18.00;97.30;97716.16;4127981;28;20776;-81
2023/07/01 02:32:54;;;;;;;9.00;6.37;;;;;;;17.92;96.67;97720.59;4153674;28;20630;-81
2023/07/01 02:34:59;;;;;;;8.93;6.23;;;;;;;17.84;96.79;97712.63;4141603;28;20654;-81
2023/07/01 02:37:02;;;;;;;11.13;6.87;;;;;;;17.81;97.00;97727.97;4136198;28;20634;-80
2023/07/01 02:39:05;;;;;;;8.93;5.80;;;;;;;17.74;97.50;97714.59;4151413;28;20668;-80
2023/07/01 02:41:09;;;;;;;7.33;5.60;;;;;;;17.74;97.22;97713.75;4141699;28;20643;-81
2023/07/01 02:43:12;;;;;;;9.17;5.30;;;;;;;17.70;97.12;97707.13;4151607;28;21041;-81
2023/07/01 02:45:15;;;;;;;7.20;5.23;;;;;;;17.67;97.76;97705.63;4155489;28;20674;-80
2023/07/01 02:47:19;;;;;;;6.20;4.50;;;;;;;17.65;97.30;97712.03;4138290;28;20671;-82
2023/07/01 02:49:22;;;;;;;8.27;5.17;;;;;;;17.63;97.67;97704.28;4157220;28;21432;-81
2023/07/01 02:51:27;;;;;;;6.60;5.33;;;;;;;17.57;97.39;97714.66;4150667;28;21196;-81
2023/07/01 02:53:30;;;;;;;6.50;4.60;;;;;;;17.53;97.09;97710.69;4154337;28;21122;-82
2023/07/01 02:55:33;;;;;;;6.37;4.53;;;;;;;17.49;96.68;97711.97;4151853;28;21260;-82
2023/07/01 02:57:36;;;;;;;6.70;4.70;;;;;;;17.46;97.48;97710.47;4135246;28;21090;-82
2023/07/01 02:59:39;;;;;;;7.03;5.43;;;;;;;17.46;97.68;97711.47;4140053;28;20669;-81
2023/07/01 03:01:44;;;;;;;7.40;4.80;;;;;;;17.43;97.75;97706.50;4150745;28;20647;-82
2023/07/01 03:03:50;;;;;;;6.50;5.23;;;;;;;17.39;97.05;97705.97;4132284;28;20706;-82
2023/07/01 03:05:53;;;;;;;8.23;5.50;;;;;;;17.37;97.56;97709.75;4154643;28;20625;-82
2023/07/01 03:07:58;;;;;;;7.00;5.00;;;;;;;17.36;98.05;97708.09;4153170;28;20638;-82
2023/07/01 03:10:01;;;;;;;12.10;4.80;;;;;;;17.37;98.43;97715.03;4134929;28;20720;-81
2023/07/01 03:12:05;;;;;;;6.97;4.80;;;;;;;17.38;98.70;97717.50;4149494;28;20730;-81
2023/07/01 03:14:08;;;;;;;7.70;5.03;;;;;;;17.38;97.95;97711.41;4135227;28;21329;-81
2023/07/01 03:16:11;;;;;;;8.17;5.00;;;;;;;17.36;98.20;97721.28;4134777;28;20681;-81
2023/07/01 03:18:14;;;;;;;10.60;5.13;;;;;;;17.33;97.60;97713.69;4154393;28;20648;-81
2023/07/01 03:20:23;;;;;;;7.33;5.20;;;;;;;17.27;97.12;97715.13;4156214;28;20716;-81
2023/07/01 03:22:28;;;;;;;6.37;4.73;;;;;;;17.24;96.47;97714.59;4149108;28;20697;-82
2023/07/01 03:24:34;;;;;;;7.37;5.00;;;;;;;17.20;97.07;97710.59;4150682;28;20666;-81
2023/07/01 03:26:37;;;;;;;7.10;4.77;;;;;;;17.17;97.10;97721.44;4153688;28;21315;-81
2023/07/01 03:28:40;;;;;;;8.10;5.43;;;;;;;17.13;96.50;97713.00;4148897;28;20640;-81
2023/07/01 03:30:44;;;;;;;7.00;4.83;;;;;;;17.12;97.32;97727.19;4134354;28;21093;-81
2023/07/01 03:32:48;;;;;;;5.97;4.60;;;;;;;17.12;96.41;97727.19;4148538;28;21221;-81
2023/07/01 03:34:52;;;;;;;7.30;4.87;;;;;;;17.09;96.40;97711.69;4156151;28;20662;-81
2023/07/01 03:36:55;;;;;;;6.43;4.63;;;;;;;17.09;97.35;97718.75;4138748;28;20749;-81
2023/07/01 03:38:58;;;;;;;9.43;4.50;;;;;;;17.07;97.42;97718.91;4139300;28;20647;-81
2023/07/01 03:41:03;;;;;;;6.87;3.80;;;;;;;17.06;96.75;97717.25;4139929;28;20685;-81
2023/07/01 03:43:06;;;;;;;6.17;4.40;;;;;;;17.05;96.54;97712.97;4145979;28;20644;-81
2023/07/01 03:45:11;;;;;;;7.37;5.17;;;;;;;17.05;97.00;97714.78;4149682;28;20713;-81
2023/07/01 03:47:14;;;;;;;6.60;5.20;;;;;;;17.05;96.06;97704.25;4153291;28;21043;-81
2023/07/01 03:49:18;;;;;;;6.60;4.47;;;;;;;17.06;97.35;97709.34;4150454;28;20623;-81
2023/07/01 03:51:21;;;;;;;6.40;4.43;;;;;;;17.05;97.09;97706.88;4155208;28;21106;-81
2023/07/01 03:53:30;;;;;;;6.77;4.93;;;;;;;17.03;97.50;97703.53;4152284;28;20684;-81
2023/07/01 03:55:33;;;;;;;8.90;5.27;;;;;;;17.02;96.52;97715.09;4154430;28;20658;-81
2023/07/01 03:57:38;;;;;;;7.40;5.13;;;;;;;17.04;96.44;97721.03;4150586;28;20903;-81
2023/07/01 03:59:41;;;;;;;8.73;4.30;;;;;;;17.07;97.08;97723.34;4150674;28;20639;-81
2023/07/01 04:01:44;;;;;;;6.30;4.63;;;;;;;17.07;96.25;97716.25;4153561;28;20665;-81
2023/07/01 04:03:47;;;;;;;7.07;4.60;;;;;;;17.08;96.89;97707.38;4153831;28;21213;-81
2023/07/01 04:05:51;;;;;;;6.57;4.37;;;;;;;17.10;95.69;97720.41;4140162;28;20680;-81
2023/07/01 04:07:54;;;;;;;6.37;4.23;;;;;;;17.09;96.15;97722.22;4155225;28;21044;-81
2023/07/01 04:09:57;;;;;;;7.40;4.73;;;;;;;17.10;96.07;97723.88;4152098;28;20681;-81
2023/07/01 04:12:00;;;;;;;5.80;4.50;;;;;;;17.12;96.75;97719.28;4152301;28;21224;-81
2023/07/01 04:14:05;;;;;;;7.00;4.83;;;;;;;17.14;97.35;97714.69;4152124;28;20678;-81
2023/07/01 04:16:08;;;;;;;6.60;4.30;;;;;;;17.14;95.82;97717.31;4149298;28;20699;-81
2023/07/01 04:18:11;;;;;;;7.93;4.97;;;;;;;17.11;96.52;97717.63;4155702;28;20684;-81
2023/07/01 04:20:14;;;;;;;6.47;4.60;;;;;;;17.13;96.50;97725.38;4154220;28;20636;-81
2023/07/01 04:22:17;;;;;;;5.53;4.20;;;;;;;17.11;96.51;97727.34;4149693;28;21240;-81
2023/07/01 04:24:20;;;;;;;5.63;4.23;;;;;;;17.13;96.37;97720.09;4152299;28;21097;-81
2023/07/01 04:26:24;;;;;;;5.87;4.03;;;;;;;17.14;96.77;97719.13;4154283;28;20647;-81
2023/07/01 04:28:27;;;;;;;6.67;4.63;;;;;;;17.16;96.41;97722.44;4158141;28;21359;-81
2023/07/01 04:30:31;;;;;;;7.00;4.60;;;;;;;17.17;96.84;97724.06;4157275;28;20715;-81
2023/07/01 04:32:35;;;;;;;5.37;4.23;;;;;;;17.19;96.97;97735.31;4136537;28;20628;-81
2023/07/01 04:34:38;;;;;;;6.77;5.00;;;;;;;17.19;96.14;97728.22;4156027;28;21304;-81
2023/07/01 04:36:41;;;;;;;5.33;4.03;;;;;;;17.19;96.29;97725.56;4156738;28;20655;-81
2023/07/01 04:38:44;;;;;;;5.20;4.27;;;;;;;17.21;96.30;97730.72;4150662;28;22019;-81
2023/07/01 04:40:47;;;;;;;6.73;4.03;;;;;;;17.21;95.30;97722.81;4151502;28;20638;-81
2023/07/01 04:42:54;;;;;;;7.40;5.27;;;;;;;17.22;95.78;97727.13;4150530;28;20670;-81
2023/07/01 04:44:58;;;;;;;7.27;4.70;;;;;;;17.24;95.36;97730.44;4153773;28;20629;-81
2023/07/01 04:47:02;;;;;;;5.93;4.67;;;;;;;17.24;96.80;97733.06;4149726;28;20634;-81
2023/07/01 04:49:08;;;;;;;6.33;4.80;;;;;;;17.25;96.44;97726.81;4149456;28;21209;-81
2023/07/01 04:51:11;;;;;;;5.90;4.43;;;;;;;17.26;96.55;97725.81;4149542;28;21226;-81
2023/07/01 04:53:16;;;;;;;6.03;5.37;;;;;;;17.26;96.23;97723.19;4154429;28;20654;-81
2023/07/01 04:55:20;;;;;;;6.90;4.80;;;;;;;17.30;95.67;97729.81;4139775;28;20775;-81
2023/07/01 04:57:23;;;;;;;7.10;6.07;;;;;;;17.34;95.54;97720.63;4151197;28;20639;-81
2023/07/01 04:59:26;;;;;;;7.40;5.30;;;;;;;17.36;95.66;97718.66;4149974;28;21202;-81
2023/07/01 05:01:29;;;;;;;5.53;4.60;;;;;;;17.37;97.23;97707.13;4149593;28;20688;-81
2023/07/01 05:03:34;;;;;;;9.93;5.17;;;;;;;17.39;96.54;97715.69;4152824;28;20642;-81
2023/07/01 05:05:37;;;;;;;7.03;5.20;;;;;;;17.41;97.36;97716.34;4147963;28;20630;-81
2023/07/01 05:07:40;;;;;;;6.20;4.47;;;;;;;17.42;96.58;97718.03;4150201;28;20634;-81
2023/07/01 05:09:43;;;;;;;5.73;4.40;;;;;;;17.40;96.75;97709.44;4151877;28;20684;-81
2023/07/01 05:11:46;;;;;;;5.90;4.33;;;;;;;17.46;97.40;97713.09;4151528;28;20639;-81
2023/07/01 05:13:49;;;;;;;9.57;5.00;;;;;;;17.52;97.21;97720.38;4154857;28;20666;-81
2023/07/01 05:15:53;;;;;;;6.00;4.60;;;;;;;17.59;98.34;97725.84;4149472;28;20762;-81
2023/07/01 05:17:56;;;;;;;6.00;4.57;;;;;;;17.68;98.09;97727.56;4156592;28;20730;-81
2023/07/01 05:20:00;;;;;;;6.67;4.90;;;;;;;17.73;97.54;97728.75;4151919;28;20718;-81
2023/07/01 05:22:04;;;;;;;6.17;4.70;;;;;;;17.81;97.93;97733.25;4140097;28;20680;-81
2023/07/01 05:24:08;;;;;;;6.20;4.67;;;;;;;17.90;97.43;97737.56;4154576;28;20714;-81
2023/07/01 05:26:11;;;;;;;7.30;4.37;;;;;;;17.98;97.49;97733.13;4152877;28;21232;-81
2023/07/01 05:28:14;;;;;;;5.30;4.30;;;;;;;18.08;96.87;97736.50;4151269;28;20619;-81
2023/07/01 05:30:17;;;;;;;6.50;4.90;;;;;;;18.18;97.32;97732.78;4155744;28;20745;-81
2023/07/01 05:32:20;;;;;;;8.40;5.80;;;;;;;18.26;97.11;97731.97;4157799;28;20664;-81
2023/07/01 05:34:24;;;;;;;6.70;5.10;;;;;;;18.32;97.29;97737.44;4155758;28;21175;-81
2023/07/01 05:36:28;;;;;;;5.73;4.87;;;;;;;18.42;97.35;97736.31;4157985;28;20691;-81
2023/07/01 05:38:32;;;;;;;5.67;4.57;;;;;;;18.53;96.02;97743.09;4152748;28;21142;-81
2023/07/01 05:40:35;;;;;;;9.03;5.73;;;;;;;18.64;95.52;97745.41;4154231;28;20647;-81
2023/07/01 05:42:38;;;;;;;5.90;4.90;;;;;;;18.85;96.16;97746.59;4156419;28;20651;-81
2023/07/01 05:44:41;;;;;;;6.47;5.00;;;;;;;19.14;94.84;97744.31;4157341;28;20741;-81
2023/07/01 05:46:44;;;;;;;6.93;5.40;;;;;;;19.44;93.86;97740.03;4149155;28;20636;-81
2023/07/01 05:48:47;;;;;;;6.40;4.37;;;;;;;19.78;93.80;97742.44;4151003;28;20644;-81
2023/07/01 05:50:50;;;;;;;8.90;5.60;;;;;;;20.08;91.59;97747.81;4139209;28;20640;-81
2023/07/01 05:52:55;;;;;;;8.03;5.57;;;;;;;20.36;90.18;97750.66;4142131;28;21080;-81
2023/07/01 05:54:58;;;;;;;6.50;4.63;;;;;;;20.64;89.23;97753.66;4150936;28;21219;-81
2023/07/01 05:57:01;;;;;;;7.60;4.70;;;;;;;20.86;88.15;97753.72;4154810;28;20640;-81
2023/07/01 05:59:04;;;;;;;5.90;4.40;;;;;;;21.16;88.54;97758.13;4156692;28;20627;-81
2023/07/01 06:01:07;;;;;;;6.00;4.70;;;;;;;21.45;86.20;97757.22;4150421;28;20637;-81
2023/07/01 06:03:11;;;;;;;5.30;4.20;;;;;;;21.64;84.47;97756.72;4152627;28;20664;-81
2023/07/01 06:05:14;;;;;;;4.97;4.10;;;;;;;21.84;83.79;97755.19;4151282;28;20676;-81
2023/07/01 06:07:18;;;;;;;4.43;3.67;;;;;;;22.06;82.80;97752.44;4154410;28;20636;-83
2023/07/01 06:09:22;;;;;;;5.83;3.90;;;;;;;22.32;80.65;97750.97;4145839;28;20658;-82
2023/07/01 06:11:25;;;;;;;5.90;4.50;;;;;;;22.52;80.12;97746.75;4148424;28;22993;-82
2023/07/01 06:13:29;;;;;;;5.97;4.00;;;;;;;22.72;80.04;97759.25;4140999;28;20701;-82
2023/07/01 06:15:32;;;;;;;6.83;4.37;;;;;;;22.92;78.44;97746.16;4142341;28;21338;-83
2023/07/01 06:17:35;;;;;;;5.10;4.13;;;;;;;23.12;78.11;97748.03;4148948;28;20633;-82
2023/07/01 06:19:38;;;;;;;5.07;4.13;;;;;;;23.30;77.44;97748.41;4148812;28;20692;-82
2023/07/01 06:21:41;;;;;;;4.90;3.90;;;;;;;23.48;76.82;97741.56;4154191;28;20643;-83
2023/07/01 06:23:45;;;;;;;3.87;3.40;;;;;;;23.67;76.52;97749.75;4137629;28;20656;-83
2023/07/01 06:25:49;;;;;;;5.33;3.83;;;;;;;23.92;75.93;97753.63;4127093;28;20699;-83
2023/07/01 06:27:52;;;;;;;5.60;4.20;;;;;;;24.20;75.55;97749.06;4138360;28;20650;-82
2023/07/01 06:29:55;;;;;;;4.97;3.23;;;;;;;24.29;71.52;97748.69;4153057;28;20645;-83
2023/07/01 06:31:58;;;;;;;5.30;3.93;;;;;;;24.37;73.39;97745.06;4151169;28;21236;-83
2023/07/01 06:34:04;;;;;;;5.10;3.80;;;;;;;24.45;71.86;97743.06;4157186;28;20651;-83
2023/07/01 06:36:08;;;;;;;4.33;3.23;;;;;;;24.45;71.20;97735.06;4150581;28;20688;-83
2023/07/01 06:38:11;;;;;;;3.90;3.37;;;;;;;24.59;71.79;97739.44;4151991;28;20629;-83
2023/07/01 06:40:14;;;;;;;5.17;3.53;;;;;;;24.75;72.57;97739.09;4150659;28;20638;-82
2023/07/01 06:42:19;;;;;;;3.83;3.10;;;;;;;24.92;71.63;97740.34;4151433;28;21220;-82
2023/07/01 06:44:22;;;;;;;4.43;3.43;;;;;;;24.96;69.95;97731.75;4168176;28;20636;-82
2023/07/01 06:46:26;;;;;;;6.57;3.60;;;;;;;25.09;70.98;97733.63;4134145;28;21294;-82
2023/07/01 06:48:29;;;;;;;9.60;3.70;;;;;;;25.15;70.68;97730.97;4156074;28;20633;-82
2023/07/01 06:50:34;;;;;;;5.30;3.63;;;;;;;25.29;71.35;97736.13;4149311;28;21299;-82
2023/07/01 06:52:37;;;;;;;4.70;3.10;;;;;;;25.36;68.36;97726.25;4152458;28;20727;-82
2023/07/01 06:54:40;;;;;;;3.70;3.00;;;;;;;25.48;69.77;97724.59;4154877;28;20676;-82
2023/07/01 06:56:44;;;;;;;9.20;3.30;;;;;;;25.58;66.29;97724.22;4149789;28;20678;-82
2023/07/01 06:58:48;;;;;;;3.80;3.27;;;;;;;25.58;69.00;97721.53;4150104;28;21012;-82
2023/07/01 07:00:51;;;;;;;5.27;3.23;;;;;;;25.52;66.61;97723.19;4153780;28;21620;-82
2023/07/01 07:02:54;;;;;;;4.73;2.83;;;;;;;25.59;67.27;97713.31;4167883;28;20665;-82
2023/07/01 07:04:57;;;;;;;3.83;3.20;;;;;;;25.66;66.14;97714.16;4165987;28;21051;-82
2023/07/01 07:07:07;;;;;;;2.77;2.33;;;;;;;25.74;65.01;97708.56;4149272;28;20620;-82
2023/07/01 07:09:10;;;;;;;3.50;2.40;;;;;;;25.81;66.58;97704.88;4140590;28;21134;-82
2023/07/01 07:11:13;;;;;;;3.40;2.37;;;;;;;25.91;66.22;97715.97;4154651;28;20792;-83
2023/07/01 07:13:17;;;;;;;3.57;3.20;;;;;;;26.01;64.55;97708.34;4158107;28;21080;-83
2023/07/01 07:15:22;;;;;;;3.70;2.77;;;;;;;26.13;63.66;97706.63;4152724;28;20905;-82
2023/07/01 07:17:25;;;;;;;3.30;2.37;;;;;;;26.27;66.47;97705.59;4155447;28;20816;-82
2023/07/01 07:19:28;;;;;;;3.93;3.00;;;;;;;26.39;64.70;97702.06;4148303;28;20655;-82
2023/07/01 07:21:33;;;;;;;3.67;2.30;;;;;;;26.46;61.59;97696.66;4154283;28;21205;-82
2023/07/01 07:23:36;;;;;;;2.63;2.03;;;;;;;26.57;61.66;97697.66;4150021;28;20690;-83
2023/07/01 07:25:40;;;;;;;2.80;1.90;;;;;;;26.61;59.99;97688.16;4137654;28;21232;-85
2023/07/01 07:27:43;;;;;;;3.00;2.23;;;;;;;26.63;58.89;97686.09;4136659;28;20649;-85
2023/07/01 07:29:46;;;;;;;2.20;1.90;;;;;;;26.62;59.61;97683.63;4145287;28;20629;-81
2023/07/01 07:31:51;;;;;;;3.03;2.20;;;;;;;26.46;59.87;97684.13;4148080;28;20651;-87
2023/07/01 07:33:54;;;;;;;4.30;1.93;;;;;;;26.56;58.89;97672.97;4156090;28;20663;-83
2023/07/01 07:35:57;;;;;;;2.33;2.07;;;;;;;26.68;59.33;97672.06;4159986;28;20625;-84
2023/07/01 07:38:00;;;;;;;2.60;2.07;;;;;;;26.84;59.68;97671.56;4152168;28;21300;-83
2023/07/01 07:40:05;;;;;;;3.17;2.10;;;;;;;26.90;59.32;97668.03;4154232;28;20717;-83
2023/07/01 07:42:08;;;;;;;4.63;2.80;;;;;;;26.98;57.84;97662.41;4155123;28;20673;-82
2023/07/01 07:44:12;;;;;;;3.60;2.27;;;;;;;27.01;58.66;97652.09;4151610;28;21430;-82
2023/07/01 07:46:15;;;;;;;3.47;1.90;;;;;;;27.04;59.44;97655.13;4151882;28;21392;-83
2023/07/01 07:48:19;;;;;;;2.60;1.90;;;;;;;27.05;58.11;97653.31;4148542;28;21762;-82
2023/07/01 07:50:23;;;;;;;2.23;1.60;;;;;;;27.06;55.56;97655.75;4166344;28;20671;-83
2023/07/01 07:52:26;;;;;;;2.47;1.90;;;;;;;27.13;56.85;97651.16;4155428;28;20760;-83
2023/07/01 07:54:29;;;;;;;2.60;1.90;;;;;;;27.26;58.35;97653.75;4156741;28;20787;-83
2023/07/01 07:56:32;;;;;;;2.73;1.90;;;;;;;27.40;57.68;97649.91;4138636;28;21338;-83
2023/07/01 07:58:35;;;;;;;3.13;1.90;;;;;;;27.58;56.69;97650.78;4152384;28;21219;-83
2023/07/01 08:00:39;;;;;;;2.97;1.87;;;;;;;27.71;55.79;97644.47;4168416;28;20711;-83
2023/07/01 08:02:44;;;;;;;3.40;2.30;;;;;;;27.81;56.69;97640.22;4172897;28;21379;-83
2023/07/01 08:04:49;;;;;;;5.63;2.00;;;;;;;27.84;54.98;97642.47;4151688;28;21348;-83
2023/07/01 08:06:53;;;;;;;2.50;2.10;;;;;;;27.95;55.90;97643.59;4134523;28;20639;-83
2023/07/01 08:08:56;;;;;;;3.10;2.10;;;;;;;28.07;56.11;97638.06;4152542;28;20628;-83
2023/07/01 08:10:59;;;;;;;2.50;1.90;;;;;;;28.25;57.11;97639.94;4143070;28;20639;-83
2023/07/01 08:13:04;;;;;;;2.83;2.23;;;;;;;28.08;53.96;97631.69;4153551;28;20648;-84
2023/07/01 08:15:08;;;;;;;2.80;1.93;;;;;;;27.84;53.50;97628.25;4155331;28;20637;-84
2023/07/01 08:17:11;;;;;;;2.10;1.50;;;;;;;27.50;53.41;97611.91;4148167;28;20694;-84
2023/07/01 08:19:14;;;;;;;3.27;2.00;;;;;;;27.27;55.39;97625.91;4154533;28;21200;-84
2023/07/01 08:21:19;;;;;;;2.80;2.03;;;;;;;27.37;57.45;97618.19;4151665;28;20636;-84
2023/07/01 08:23:22;;;;;;;4.03;2.80;;;;;;;27.56;56.54;97618.03;4152036;28;20630;-84
2023/07/01 08:25:25;;;;;;;5.47;2.27;;;;;;;27.87;53.85;97611.69;4150228;28;20990;-84
2023/07/01 08:27:28;;;;;;;2.17;1.90;;;;;;;28.04;55.82;97613.56;4156048;28;20736;-84
2023/07/01 08:29:31;;;;;;;3.27;1.97;;;;;;;27.87;55.10;97604.47;4148916;28;20638;-84
2023/07/01 08:31:34;;;;;;;4.43;1.90;;;;;;;27.73;55.82;97599.50;4169465;28;20638;-84
2023/07/01 08:33:38;;;;;;;4.47;2.80;;;;;;;27.50;55.85;97599.34;4151370;28;20648;-84
2023/07/01 08:35:41;;;;;;;3.03;2.60;;;;;;;27.32;55.23;97585.88;4151131;28;20732;-84
2023/07/01 08:37:45;;;;;;;3.70;2.57;;;;;;;27.33;57.01;97584.81;4151963;28;20745;-84
2023/07/01 08:39:48;;;;;;;6.40;2.50;;;;;;;27.42;55.75;97596.88;4155740;28;20640;-84
2023/07/01 08:41:52;;;;;;;2.27;1.90;;;;;;;27.40;55.71;97582.91;4155562;28;20641;-84
2023/07/01 08:43:56;;;;;;;4.83;2.13;;;;;;;27.59;55.31;97587.28;4155019;28;20673;-84
2023/07/01 08:46:03;;;;;;;5.10;2.03;;;;;;;27.63;55.24;97585.78;4151427;28;20742;-84
2023/07/01 08:48:06;;;;;;;2.50;2.10;;;;;;;27.80;56.38;97581.44;4152798;28;20627;-84
2023/07/01 08:50:18;;;;;;;2.30;1.90;;;;;;;27.90;54.76;97584.44;4157022;28;20639;-84
2023/07/01 08:52:23;;;;;;;3.07;1.90;;;;;;;27.94;56.01;97583.75;4150713;28;20630;-84
2023/07/01 08:54:28;;;;;;;2.50;2.10;;;;;;;27.82;55.35;97582.88;4160766;28;21450;-84
2023/07/01 08:56:32;;;;;;;3.90;2.30;;;;;;;27.68;54.68;97578.72;4152025;28;20647;-84
2023/07/01 08:58:35;;;;;;;4.13;2.40;;;;;;;27.66;56.90;97577.28;4141419;28;21097;-84
2023/07/01 09:00:38;;;;;;;3.17;2.57;;;;;;;27.65;54.80;97575.66;4149382;28;20639;-83
2023/07/01 09:02:43;;;;;;;2.70;2.10;;;;;;;27.53;56.30;97575.56;4154280;28;20765;-84
2023/07/01 09:04:46;;;;;;;2.33;2.00;;;;;;;27.67;56.93;97581.63;4151190;28;20665;-84
2023/07/01 09:06:49;;;;;;;2.30;1.87;;;;;;;27.88;54.80;97570.44;4139001;28;20663;-83
2023/07/01 09:08:54;;;;;;;2.53;2.03;;;;;;;27.66;55.91;97569.25;4147599;28;20654;-84
2023/07/01 09:10:58;;;;;;;3.50;2.10;;;;;;;27.65;54.74;97565.75;4133569;28;20685;-84
2023/07/01 09:13:10;;;;;;;3.50;2.00;;;;;;;27.71;55.16;97555.97;4159794;28;20787;-83
2023/07/01 09:15:13;;;;;;;2.37;2.03;;;;;;;27.62;54.15;97557.34;4157561;28;20654;-84
2023/07/01 09:17:26;;;;;;;2.83;2.27;;;;;;;27.74;55.22;97559.03;4149740;28;21036;-84
2023/07/01 09:19:30;;;;;;;6.17;2.40;;;;;;;27.87;56.02;97555.38;4143168;28;20626;-84
2023/07/01 09:21:33;;;;;;;4.37;2.40;;;;;;;27.87;53.71;97547.34;4119149;28;20631;-82
2023/07/01 09:23:38;;;;;;;3.70;2.30;;;;;;;28.16;54.24;97555.41;4123904;28;21089;-82
2023/07/01 09:25:41;;;;;;;3.00;2.37;;;;;;;28.26;54.09;97553.84;4163625;28;20731;-82
2023/07/01 09:27:47;;;;;;;5.50;1.90;;;;;;;28.11;54.92;97550.72;4161527;28;20634;-85
2023/07/01 09:29:52;;;;;;;3.70;2.90;;;;;;;27.94;56.06;97548.88;4133767;28;20646;-81
2023/07/01 09:31:55;;;;;;;7.07;3.90;;;;;;;27.96;55.49;97548.66;4152744;28;20707;-79
2023/07/01 09:34:01;;;;;;;3.73;2.40;;;;;;;28.09;54.84;97544.78;4147239;28;22167;-80
2023/07/01 09:36:05;;;;;;;2.70;2.33;;;;;;;27.67;54.90;97536.03;4148976;28;21313;-81
2023/07/01 09:38:09;;;;;;;2.20;2.00;;;;;;;27.38;54.89;97530.53;4150969;28;20658;-83
2023/07/01 09:40:19;;;;;;;2.73;2.43;;;;;;;27.11;54.63;97521.16;4153090;28;20618;-81